Eddystone, Pennsylvania
Current Conditions -  °F | °C
As of 12:54 AM on Friday 31 Oct 2014 (Local Time) from KPHL Reporting Station
Clear Clear  
Wind Chill: 43°   Ceiling: Unl
Heat Index: 46°   Visibility: 10mi
Dew Point: 34°   Wind: 6mph
Humidity: 63%   Direction: 330°NNW
Pressure: 30.04"   Gusts: NA
Location:  39.8649°N, 75.3407°W
Report Text: KPHL 310454Z 33005KT 10SM CLR 08/01 A3004 RMK AO2 SLP173 T00780011 401560072
Loading
Personal Weather Stations






























Interactive Weather Map
Tropical Storm Tracking
New forecast layout! Learn more

10-Day Weather Forecast

Advertisements
Track Severe Weather on mobile